createdAt,value
2022-08-04T00:00:07.653Z,3.15
2022-08-04T00:03:14.060Z,3.05
2022-08-04T00:06:05.134Z,2.97
2022-08-04T00:08:58.380Z,3.03
2022-08-04T00:11:49.155Z,3.55
2022-08-04T00:14:37.968Z,3.20
2022-08-04T00:17:28.977Z,2.63
2022-08-04T00:20:18.659Z,2.92
2022-08-04T00:23:08.852Z,2.67
2022-08-04T00:25:56.457Z,2.97
2022-08-04T00:28:42.981Z,2.60
2022-08-04T00:31:53.890Z,3.42
2022-08-04T00:34:37.048Z,2.65
2022-08-04T00:37:25.013Z,2.40
2022-08-04T00:40:24.804Z,2.67
2022-08-04T00:43:21.671Z,2.20
2022-08-04T00:46:28.883Z,2.50
2022-08-04T00:49:42.460Z,2.63
2022-08-04T00:52:46.420Z,2.60
2022-08-04T00:55:35.512Z,2.95
2022-08-04T00:58:43.705Z,2.50
2022-08-04T01:01:45.517Z,2.58
2022-08-04T01:04:58.197Z,2.53
2022-08-04T01:08:05.942Z,2.33
2022-08-04T01:11:05.534Z,2.80
2022-08-04T01:14:18.277Z,2.70
2022-08-04T01:17:37.780Z,2.45
2022-08-04T01:20:26.296Z,2.95
2022-08-04T01:23:54.850Z,2.40
2022-08-04T01:27:01.434Z,3.17
2022-08-04T01:29:58.630Z,2.80
2022-08-04T01:32:53.752Z,1.95
2022-08-04T01:35:54.039Z,2.80
2022-08-04T01:38:41.114Z,2.85
2022-08-04T01:41:32.609Z,2.53
2022-08-04T01:44:20.908Z,3.03
2022-08-04T01:47:08.729Z,2.92
2022-08-04T01:49:55.135Z,2.60
2022-08-04T01:52:46.494Z,3.10
2022-08-04T01:55:54.421Z,2.67
2022-08-04T01:58:41.891Z,2.70
2022-08-04T02:01:28.299Z,2.90
2022-08-04T02:04:23.439Z,2.10
2022-08-04T02:07:32.548Z,2.35
2022-08-04T02:10:27.876Z,3.33
2022-08-04T02:13:50.756Z,2.97
2022-08-04T02:16:52.268Z,2.70
2022-08-04T02:19:49.197Z,2.50
2022-08-04T02:22:44.547Z,2.78
2022-08-04T02:25:39.381Z,2.50
2022-08-04T02:28:25.279Z,3.97
2022-08-04T02:31:28.862Z,2.72
2022-08-04T02:37:24.502Z,2.40
2022-08-04T02:40:12.923Z,2.83
2022-08-04T02:43:00.093Z,2.92
2022-08-04T02:45:47.975Z,2.75
2022-08-04T02:48:36.844Z,2.85
2022-08-04T02:51:27.471Z,2.63
2022-08-04T02:54:16.243Z,4.32
2022-08-04T02:57:20.067Z,2.60
2022-08-04T03:00:14.697Z,2.88
2022-08-04T03:03:31.077Z,2.40
2022-08-04T03:06:29.270Z,2.30
2022-08-04T03:09:35.035Z,2.50
2022-08-04T03:12:53.229Z,2.30
2022-08-04T03:16:01.310Z,2.33
2022-08-04T03:19:17.265Z,2.47
2022-08-04T03:22:12.117Z,2.33
2022-08-04T03:25:28.627Z,2.50
2022-08-04T03:28:17.848Z,2.17
2022-08-04T03:31:09.713Z,1.85
2022-08-04T03:34:26.911Z,1.90
2022-08-04T03:37:54.102Z,2.42
2022-08-04T03:41:02.023Z,2.35
2022-08-04T03:44:30.023Z,2.38
2022-08-04T03:47:51.314Z,2.28
2022-08-04T03:51:35.169Z,3.17
2022-08-04T03:54:27.051Z,2.40
2022-08-04T03:57:43.598Z,2.45
2022-08-04T04:00:57.156Z,2.63
2022-08-04T04:04:10.381Z,3.57
2022-08-04T04:07:34.135Z,2.57
2022-08-04T04:10:49.039Z,2.33
2022-08-04T04:13:46.138Z,2.45
2022-08-04T04:16:38.815Z,2.25
2022-08-04T04:19:43.710Z,2.20
2022-08-04T04:22:38.188Z,2.85
2022-08-04T04:25:42.195Z,2.40
2022-08-04T04:28:52.505Z,2.40
2022-08-04T04:32:03.028Z,2.47
2022-08-04T04:35:13.591Z,2.70
2022-08-04T04:38:31.104Z,2.90
2022-08-04T04:41:33.026Z,3.00
2022-08-04T04:44:44.505Z,3.38
2022-08-04T04:48:12.117Z,3.53
2022-08-04T04:51:06.722Z,3.03
2022-08-04T04:54:06.088Z,3.60
2022-08-04T04:57:18.605Z,3.58
2022-08-04T05:00:14.129Z,3.55
2022-08-04T05:03:39.911Z,3.00
2022-08-04T05:06:34.312Z,5.05
2022-08-04T05:09:32.891Z,3.30
2022-08-04T05:14:22.907Z,3.88
2022-08-04T05:15:55.382Z,3.85
2022-08-04T05:18:47.979Z,4.20
2022-08-04T05:21:52.991Z,3.50
2022-08-04T05:24:42.995Z,3.70
2022-08-04T05:27:39.803Z,4.25
2022-08-04T05:30:28.292Z,2.95
2022-08-04T05:33:29.223Z,3.90
2022-08-04T05:36:39.904Z,3.55
2022-08-04T05:39:34.638Z,4.53
2022-08-04T05:42:21.639Z,3.22
2022-08-04T05:45:11.489Z,2.95
2022-08-04T05:47:57.760Z,3.40
2022-08-04T05:50:46.019Z,3.25
2022-08-04T05:53:32.834Z,2.75
2022-08-04T05:56:19.467Z,2.90
2022-08-04T05:59:06.656Z,3.03
2022-08-04T06:01:57.820Z,3.15
2022-08-04T06:04:47.363Z,2.78
2022-08-04T06:07:34.596Z,2.75
2022-08-04T06:10:42.469Z,3.08
2022-08-04T06:13:48.090Z,3.03
2022-08-04T06:16:42.356Z,2.83
2022-08-04T06:20:00.625Z,2.33
2022-08-04T06:22:45.189Z,3.40
2022-08-04T06:28:20.433Z,2.78
2022-08-04T06:32:27.668Z,2.50
2022-08-04T06:34:16.753Z,2.65
2022-08-04T06:37:03.846Z,2.60
2022-08-04T06:39:53.412Z,3.15
2022-08-04T06:42:40.736Z,2.33
2022-08-04T06:45:27.216Z,2.35
2022-08-04T06:48:16.431Z,2.45
2022-08-04T06:51:26.619Z,2.55
2022-08-04T06:54:10.047Z,2.17
2022-08-04T06:56:59.067Z,2.40
2022-08-04T07:00:05.092Z,2.70
2022-08-04T07:02:52.825Z,3.37
2022-08-04T07:05:40.942Z,2.20
2022-08-04T07:08:27.462Z,2.25
2022-08-04T07:11:14.912Z,2.10
2022-08-04T07:14:01.155Z,2.42
2022-08-04T07:16:49.994Z,2.67
2022-08-04T07:19:37.008Z,2.17
2022-08-04T07:22:26.285Z,2.80
2022-08-04T07:25:13.196Z,2.22
2022-08-04T07:27:59.743Z,3.88
2022-08-04T07:30:47.180Z,2.90
2022-08-04T07:33:33.982Z,2.92
2022-08-04T07:36:20.395Z,2.30
2022-08-04T07:39:06.901Z,2.65
2022-08-04T07:41:55.428Z,2.90
2022-08-04T07:44:44.581Z,3.85
2022-08-04T07:47:33.071Z,2.65
2022-08-04T07:50:20.835Z,2.63
2022-08-04T07:53:52.828Z,3.00
2022-08-04T07:56:15.341Z,2.30
2022-08-04T07:59:02.324Z,2.80
2022-08-04T08:01:48.816Z,3.95
2022-08-04T08:04:35.300Z,2.60
2022-08-04T08:07:22.130Z,2.40
2022-08-04T08:10:15.809Z,2.78
2022-08-04T08:13:02.719Z,2.67
2022-08-04T08:15:49.451Z,2.47
2022-08-04T08:18:35.571Z,2.50
2022-08-04T08:21:22.405Z,2.70
2022-08-04T08:24:12.899Z,2.95
2022-08-04T08:27:00.431Z,2.30
2022-08-04T08:29:47.806Z,2.53
2022-08-04T08:32:34.193Z,2.55
2022-08-04T08:35:22.650Z,3.15
2022-08-04T08:38:10.995Z,2.90
2022-08-04T08:41:19.363Z,2.47
2022-08-04T08:44:19.340Z,2.55
2022-08-04T08:48:05.816Z,3.03
2022-08-04T08:51:07.974Z,2.47
2022-08-04T08:54:31.150Z,2.40
2022-08-04T08:57:37.916Z,2.40
2022-08-04T09:00:46.917Z,2.53
2022-08-04T09:03:52.047Z,2.67
2022-08-04T09:07:06.077Z,2.47
2022-08-04T09:10:01.078Z,3.28
2022-08-04T09:12:52.210Z,2.35
2022-08-04T09:15:54.440Z,2.70
2022-08-04T09:19:02.349Z,2.63
2022-08-04T09:22:12.347Z,2.58
2022-08-04T09:25:20.763Z,2.50
2022-08-04T09:28:37.122Z,2.40
2022-08-04T09:31:49.030Z,2.88
2022-08-04T09:35:16.203Z,1.95
2022-08-04T09:38:28.654Z,2.17
2022-08-04T09:41:35.983Z,2.30
2022-08-04T09:44:54.016Z,2.45
2022-08-04T09:48:11.176Z,2.00
2022-08-04T09:50:59.998Z,2.30
2022-08-04T09:58:15.945Z,2.50
2022-08-04T10:01:08.867Z,2.30
2022-08-04T10:04:09.968Z,2.40
2022-08-04T10:07:14.273Z,2.05
2022-08-04T10:10:28.499Z,2.13
2022-08-04T10:13:32.548Z,2.67
2022-08-04T10:16:52.373Z,2.45
2022-08-04T10:19:43.380Z,2.90
2022-08-04T10:23:24.045Z,1.90
2022-08-04T10:26:27.518Z,2.38
2022-08-04T10:29:17.518Z,2.33
2022-08-04T10:32:11.851Z,1.83
2022-08-04T10:35:14.782Z,2.28
2022-08-04T10:38:06.607Z,3.40
2022-08-04T10:41:23.525Z,2.10
2022-08-04T10:44:42.247Z,2.42
2022-08-04T10:47:38.308Z,2.58
2022-08-04T10:50:26.543Z,2.22
2022-08-04T10:53:18.512Z,2.05
2022-08-04T10:56:15.619Z,2.08
2022-08-04T10:59:18.892Z,3.38
2022-08-04T11:02:37.559Z,2.42
2022-08-04T11:05:49.785Z,2.63
2022-08-04T11:08:38.351Z,1.90
2022-08-04T11:12:01.448Z,2.20
2022-08-04T11:14:51.994Z,2.20
2022-08-04T11:17:47.105Z,1.85
2022-08-04T11:20:46.554Z,1.65
2022-08-04T11:23:41.692Z,1.92
2022-08-04T11:26:51.166Z,1.80
2022-08-04T11:30:03.835Z,1.73
2022-08-04T11:33:00.250Z,2.00
2022-08-04T11:35:57.783Z,2.13
2022-08-04T11:38:56.877Z,1.77
2022-08-04T11:42:28.895Z,2.00
2022-08-04T11:45:23.739Z,2.35
2022-08-04T11:48:28.764Z,1.95
2022-08-04T11:51:16.997Z,2.95
2022-08-04T11:54:03.565Z,2.03
2022-08-04T11:56:50.258Z,1.95
2022-08-04T11:59:37.340Z,2.00
2022-08-04T12:02:49.497Z,2.20
2022-08-04T12:05:46.913Z,2.25
2022-08-04T12:08:58.125Z,2.60
2022-08-04T12:12:03.094Z,1.70
2022-08-04T12:15:16.399Z,1.90
2022-08-04T12:18:02.648Z,2.00
2022-08-04T12:20:59.090Z,1.77
2022-08-04T12:23:47.435Z,1.45
2022-08-04T12:26:40.383Z,1.75
2022-08-04T12:29:30.952Z,1.70
2022-08-04T12:32:31.536Z,1.50
2022-08-04T12:35:31.040Z,1.88
2022-08-04T12:38:18.801Z,1.75
2022-08-04T12:41:05.230Z,1.70
2022-08-04T12:43:52.738Z,1.45
2022-08-04T12:46:40.139Z,2.35
2022-08-04T12:49:27.643Z,1.83
2022-08-04T12:52:16.856Z,2.30
2022-08-04T12:55:05.830Z,1.80
2022-08-04T12:57:53.254Z,1.52
2022-08-04T13:00:42.123Z,3.00
2022-08-04T13:03:37.479Z,1.70
2022-08-04T13:06:28.640Z,1.77
2022-08-04T13:09:20.962Z,2.30
2022-08-04T13:12:20.806Z,1.58
2022-08-04T13:15:17.999Z,2.05
2022-08-04T13:18:15.245Z,1.75
2022-08-04T13:21:19.620Z,1.40
2022-08-04T13:24:20.946Z,1.70
2022-08-04T13:27:16.306Z,1.90
2022-08-04T13:30:03.454Z,1.65
2022-08-04T13:32:59.014Z,1.80
2022-08-04T13:35:54.534Z,1.60
2022-08-04T13:38:51.562Z,1.40
2022-08-04T13:41:43.592Z,1.75
2022-08-04T13:44:34.148Z,1.75
2022-08-04T13:47:24.754Z,1.40
2022-08-04T13:50:36.697Z,1.83
2022-08-04T13:53:24.190Z,1.63
2022-08-04T13:56:15.044Z,1.50
2022-08-04T13:59:06.344Z,1.58
2022-08-04T14:02:07.400Z,2.10
2022-08-04T14:05:01.776Z,1.58
2022-08-04T14:07:54.189Z,2.00
2022-08-04T14:10:40.472Z,1.50
2022-08-04T14:13:41.999Z,1.83
2022-08-04T14:16:28.289Z,1.40
2022-08-04T14:19:14.353Z,1.60
2022-08-04T14:22:00.883Z,1.85
2022-08-04T14:24:59.925Z,2.17
2022-08-04T14:27:52.124Z,1.80
2022-08-04T14:30:38.370Z,1.95
2022-08-04T14:34:01.759Z,1.60
2022-08-04T14:37:00.652Z,1.90
2022-08-04T14:40:08.062Z,1.75
2022-08-04T14:43:02.699Z,1.40
2022-08-04T14:45:55.426Z,1.67
2022-08-04T14:49:10.810Z,1.90
2022-08-04T14:52:02.886Z,1.65
2022-08-04T14:54:48.983Z,2.15
2022-08-04T14:58:35.899Z,2.38
2022-08-04T15:00:43.565Z,1.77
2022-08-04T15:03:30.932Z,2.00
2022-08-04T15:06:21.623Z,2.08
2022-08-04T15:09:10.048Z,1.65
2022-08-04T15:11:56.310Z,1.95
2022-08-04T15:14:45.672Z,1.80
2022-08-04T15:17:32.162Z,1.60
2022-08-04T15:20:18.677Z,1.70
2022-08-04T15:23:10.661Z,2.28
2022-08-04T15:26:09.155Z,1.85
2022-08-04T15:29:02.715Z,2.92
2022-08-04T15:32:07.428Z,2.15
2022-08-04T15:35:03.356Z,2.00
2022-08-04T15:37:59.695Z,1.73
2022-08-04T15:40:55.388Z,2.05
2022-08-04T15:44:20.035Z,1.95
2022-08-04T15:47:16.685Z,2.47
2022-08-04T15:50:11.434Z,1.90
2022-08-04T15:53:12.826Z,1.60
2022-08-04T15:55:59.405Z,1.60
2022-08-04T15:58:54.877Z,1.52
2022-08-04T16:01:41.157Z,1.65
2022-08-04T16:04:47.159Z,1.60
2022-08-04T16:08:13.168Z,1.60
2022-08-04T16:10:59.734Z,1.60
2022-08-04T16:14:07.478Z,1.55
2022-08-04T16:16:53.692Z,1.80
2022-08-04T16:20:01.841Z,1.80
2022-08-04T16:22:51.478Z,1.50
2022-08-04T16:25:46.333Z,1.67
2022-08-04T16:28:35.948Z,1.80
2022-08-04T16:31:23.434Z,1.40
2022-08-04T16:34:48.025Z,1.30
2022-08-04T16:37:18.034Z,1.42
2022-08-04T16:40:29.768Z,1.50
2022-08-04T16:43:22.487Z,1.60
2022-08-04T16:46:18.377Z,1.83
2022-08-04T16:49:07.251Z,1.55
2022-08-04T16:51:54.213Z,1.55
2022-08-04T16:54:40.284Z,1.65
2022-08-04T16:57:27.803Z,1.83
2022-08-04T17:00:14.632Z,1.80
2022-08-04T17:03:05.552Z,1.80
2022-08-04T17:06:06.517Z,1.80
2022-08-04T17:08:52.880Z,2.00
2022-08-04T17:11:40.401Z,1.88
2022-08-04T17:14:31.327Z,1.60
2022-08-04T17:17:23.288Z,2.25
2022-08-04T17:20:09.884Z,2.00
2022-08-04T17:23:17.762Z,1.77
2022-08-04T17:26:39.972Z,1.48
2022-08-04T17:29:44.597Z,1.45
2022-08-04T17:32:31.093Z,1.80
2022-08-04T17:35:17.460Z,2.20
2022-08-04T17:38:06.959Z,2.35
2022-08-04T17:40:59.219Z,2.35
2022-08-04T17:44:06.376Z,1.75
2022-08-04T17:46:53.177Z,1.60
2022-08-04T17:49:52.883Z,2.20
2022-08-04T17:52:45.505Z,1.80
2022-08-04T17:55:49.553Z,2.10
2022-08-04T17:58:35.823Z,2.97
2022-08-04T18:01:24.922Z,2.13
2022-08-04T18:04:27.926Z,2.10
2022-08-04T18:08:46.278Z,1.55
2022-08-04T18:10:57.065Z,2.15
2022-08-04T18:13:52.357Z,1.45
2022-08-04T18:16:45.360Z,1.60
2022-08-04T18:22:27.865Z,1.42
2022-08-04T18:25:21.414Z,1.60
2022-08-04T18:28:13.841Z,1.55
2022-08-04T18:36:59.056Z,2.28
2022-08-04T18:40:09.617Z,1.40
2022-08-04T18:42:51.847Z,1.50
2022-08-04T18:45:37.686Z,1.90
2022-08-04T18:48:36.190Z,2.08
2022-08-04T18:51:25.188Z,1.35
2022-08-04T18:54:17.292Z,1.30
2022-08-04T18:57:24.819Z,1.52
2022-08-04T19:00:10.490Z,1.70
2022-08-04T19:02:57.341Z,1.95
2022-08-04T19:05:43.874Z,2.47
2022-08-04T19:08:42.027Z,1.98
2022-08-04T19:18:01.109Z,1.30
2022-08-04T19:20:49.022Z,2.25
2022-08-04T19:24:11.645Z,2.28
2022-08-04T19:26:42.065Z,1.40
2022-08-04T19:29:41.491Z,1.25
2022-08-04T19:32:29.324Z,2.55
2022-08-04T19:35:17.012Z,1.70
2022-08-04T19:38:04.051Z,1.40
2022-08-04T19:40:52.760Z,1.60
2022-08-04T19:43:43.820Z,1.48
2022-08-04T19:46:30.919Z,1.88
2022-08-04T19:50:05.054Z,1.70
2022-08-04T19:55:37.536Z,1.95
2022-08-04T19:58:26.726Z,1.02
2022-08-04T20:01:31.250Z,1.20
2022-08-04T20:04:19.951Z,1.27
2022-08-04T20:07:09.807Z,1.85
2022-08-04T20:10:04.608Z,1.60
2022-08-04T20:12:55.633Z,1.50
2022-08-04T20:15:55.469Z,1.60
2022-08-04T20:18:55.570Z,1.45
2022-08-04T20:21:54.884Z,1.42
2022-08-04T20:24:50.426Z,1.52
2022-08-04T20:27:59.333Z,1.42
2022-08-04T20:30:47.634Z,1.40
2022-08-04T20:33:35.279Z,1.52
2022-08-04T20:36:23.416Z,2.30
2022-08-04T20:39:10.975Z,4.50
2022-08-04T20:42:02.331Z,2.53
2022-08-04T20:44:48.791Z,2.08
2022-08-04T20:47:36.089Z,1.73
2022-08-04T20:53:52.801Z,1.40
2022-08-04T20:56:38.648Z,1.25
2022-08-04T20:59:37.926Z,1.35
2022-08-04T21:02:24.847Z,1.67
2022-08-04T21:05:12.947Z,1.42
2022-08-04T21:07:59.551Z,1.55
2022-08-04T21:10:47.445Z,1.50
2022-08-04T21:13:52.286Z,1.25
2022-08-04T21:16:55.049Z,1.20
2022-08-04T21:19:42.924Z,1.40
2022-08-04T21:22:35.979Z,1.20
2022-08-04T21:25:24.128Z,1.27
2022-08-04T21:28:10.875Z,1.30
2022-08-04T21:30:59.469Z,1.58
2022-08-04T21:33:50.931Z,1.48
2022-08-04T21:36:39.420Z,1.42
2022-08-04T21:39:32.358Z,1.08
2022-08-04T21:42:29.426Z,1.38
2022-08-04T21:45:22.496Z,1.80
2022-08-04T21:48:09.186Z,1.45
2022-08-04T21:50:55.565Z,1.20
2022-08-04T21:53:44.096Z,1.17
2022-08-04T21:56:34.540Z,1.10
2022-08-04T21:59:30.714Z,1.20
2022-08-04T22:02:17.515Z,1.10
2022-08-04T22:05:04.035Z,1.52
2022-08-04T22:07:53.530Z,1.40
2022-08-04T22:10:39.478Z,1.52
2022-08-04T22:16:39.827Z,1.00
2022-08-04T22:19:50.070Z,1.20
2022-08-04T22:22:37.877Z,1.40
2022-08-04T22:25:24.074Z,1.05
2022-08-04T22:28:18.815Z,1.52
2022-08-04T22:31:23.853Z,1.40
2022-08-04T22:34:11.359Z,1.33
2022-08-04T22:36:59.166Z,1.00
2022-08-04T22:39:56.576Z,1.30
2022-08-04T22:42:43.112Z,1.42
2022-08-04T22:45:44.376Z,1.10
2022-08-04T22:48:32.612Z,1.20
2022-08-04T22:51:20.887Z,1.40
2022-08-04T22:54:12.383Z,1.52
2022-08-04T22:56:59.096Z,1.20
2022-08-04T22:59:46.823Z,1.10
2022-08-04T23:02:35.651Z,1.08
2022-08-04T23:05:22.700Z,1.30
2022-08-04T23:08:18.347Z,1.33
2022-08-04T23:11:10.750Z,1.60
2022-08-04T23:13:57.125Z,1.60
2022-08-04T23:16:47.866Z,2.17
2022-08-04T23:19:39.719Z,1.95
2022-08-04T23:22:42.075Z,1.92
2022-08-04T23:25:33.262Z,1.80
2022-08-04T23:28:36.904Z,2.15
2022-08-04T23:31:40.428Z,1.50
2022-08-04T23:34:29.269Z,1.40
2022-08-04T23:37:16.160Z,1.63
2022-08-04T23:40:15.582Z,1.55
2022-08-04T23:43:17.149Z,1.45
2022-08-04T23:46:08.199Z,1.05
2022-08-04T23:48:54.578Z,1.20
2022-08-04T23:51:43.258Z,1.63
2022-08-04T23:54:29.253Z,1.60
2022-08-04T23:57:19.241Z,1.40
